ADDS TAF Board (Experimental) INFO Settings
IDs: Format: Expanded Condensed

KIAD - Washington/Dulles In, VA, US

Issued at 0843 UTC 11 Feb 2016
Updated at: 0854 UTC 11 Feb 2016
Time0752Z 11/09Z 11/10Z 11/11Z 11/12Z 11/13Z 11/14Z 11/15Z 11/16Z 11/17Z 11/18Z 11/19Z 11/20Z 11/21Z
Type OBS PRVL PRVL PRVL PRVL PRVL PRVL PRVL PRVL PRVL PRVL PRVL PRVL PRVL
VIS 10 >6 >6 >6 >6 >6 >6 >6 >6 >6 >6 >6 >6 >6
CIG 180 -- -- -- -- -- -- -- -- -- -- -- -- --
Cover BKN SCT SCT SCT SCT SCT SCT SCT SCT SCT SCT SCT SCT SCT
FltCat VFR VFR VFR VFR VFR VFR VFR VFR VFR VFR VFR VFR VFR VFR
WX -- -- -- -- -- -- -- -- -- -- -- -- -- --
WDir 290 290 290 290 290 290 290 290 290 290 290 290 290 290
WSpd 15 12 12 12 12 12 12 12 12 16 16 16 16 16
WGst -- 20 20 20 20 20 20 20 20 26 26 26 26 26
R01/19
XWnd 14 11 11 11 11 11 11 11 11 15 15 15 15 15
XGst -- 19 19 19 19 19 19 19 19 25 25 25 25 25
HWnd 5 4 4 4 4 4 4 4 4 5 5 5 5 5
HGst -- 7 7 7 7 7 7 7 7 8 8 8 8 8
R12/30
XWnd -0 -0 -0 -0 -0 -0 -0 -0 -0 -0 -0 -0 -0 -0
XGst -- -0 -0 -0 -0 -0 -0 -0 -0 -0 -0 -0 -0 -0
HWnd -15 -12 -12 -12 -12 -12 -12 -12 -12 -16 -16 -16 -16 -16
HGst -- -20 -20 -20 -20 -20 -20 -20 -20 -26 -26 -26 -26 -26

NOTE: TEMPO conditions in [brackets]. Keep in mind TEMPO conditions might be better (lower impact) than prevailing conditions.

Raw TAF
KIAD 110843Z 1109/1212 29012G20KT P6SM SCT100
  FM111700 29016G26KT P6SM SCT050
  FM120100 31009KT P6SM FEW250


Raw METAR
KIAD 110752Z 29015KT 10SM FEW050 SCT110 BKN180 M06/M14 A2998 RMK AO2 SLP155 T10561144
KIAD 110652Z 29012G25KT 10SM FEW050 SCT110 BKN190 M06/M15 A2997 RMK AO2 SLP152 T10561150
KIAD 110552Z 29010KT 10SM FEW050 SCT110 M05/M14 A2997 RMK AO2 SLP152 T10501144 11033 21050 53013

METAR Board
Radar Display
Forecast Discussion

TAF Board Legend

Potential Impact
Threat None Slight Moderate High
Visibility (sm) ≥5.1 5.1>X≥3 3>X≥1 <1
Ceiling (100 ft) ≥30.1 30.1>X≥10 10>X≥5 <5
Wind Speed (kt) <10 10≤X<20 20≤X<30 ≥30
Wind Gust (kt) <15 15≤X<25 25≤X<35 ≥35
Weather No Wx Reported VCTS,-TS,-FZRA,SN TS,FZRA +TS,+FZRA,+SN